Time;durP1;ratioP1;P1;durP2;ratioP2;P2;SDS_P1;SDS_P2;PMS_P1;PMS_P2;Temp;Humidity;BMP_temperature;BMP_pressure;BME280_temperature;BME280_humidity;BME280_pressure;Samples;Min_cycle;Max_cycle;Signal;HPM_P1;HPM_P2
2022/08/21 00:00:34;;;;;;;3.30;3.10;;;;;;;16.39;100.00;96477.75;5042384;27;102302;-60
2022/08/21 00:03:04;;;;;;;3.30;3.10;;;;;;;16.34;100.00;96482.31;5051450;27;102659;-60
2022/08/21 00:05:33;;;;;;;4.00;3.50;;;;;;;16.34;100.00;96482.31;5039626;27;101908;-60
2022/08/21 00:08:00;;;;;;;3.30;3.10;;;;;;;16.32;100.00;96482.63;5033428;28;105147;-60
2022/08/21 00:10:27;;;;;;;3.07;2.77;;;;;;;16.31;100.00;96474.84;5036397;27;101872;-60
2022/08/21 00:12:56;;;;;;;3.40;3.10;;;;;;;16.38;100.00;96473.44;5052256;27;102329;-60
2022/08/21 00:15:40;;;;;;;3.70;3.37;;;;;;;16.33;100.00;96467.31;5049471;27;105725;-60
2022/08/21 00:18:10;;;;;;;3.80;3.50;;;;;;;16.40;100.00;96475.88;5052200;27;101713;-60
2022/08/21 00:20:38;;;;;;;3.87;3.57;;;;;;;16.36;100.00;96472.91;5044653;27;101797;-60
2022/08/21 00:23:05;;;;;;;3.70;3.40;;;;;;;16.39;100.00;96469.69;5030975;28;103138;-60
2022/08/21 00:25:33;;;;;;;3.63;3.43;;;;;;;16.36;100.00;96467.53;5030624;27;101933;-60
2022/08/21 00:28:01;;;;;;;3.73;3.43;;;;;;;16.35;100.00;96460.56;5031892;28;102982;-60
2022/08/21 00:30:30;;;;;;;4.00;3.60;;;;;;;16.35;100.00;96457.09;5035442;27;102513;-60
2022/08/21 00:32:58;;;;;;;3.50;3.20;;;;;;;16.37;100.00;96453.06;5048304;27;105822;-60
2022/08/21 00:35:35;;;;;;;4.93;3.77;;;;;;;16.37;100.00;96457.63;5040602;27;102510;-60
2022/08/21 00:38:02;;;;;;;4.80;3.73;;;;;;;16.36;100.00;96459.47;5031120;27;101919;-60
2022/08/21 00:40:37;;;;;;;3.97;3.50;;;;;;;16.36;100.00;96450.66;5039337;27;102380;-60
2022/08/21 00:43:09;;;;;;;4.73;3.60;;;;;;;16.39;100.00;96450.09;5051166;27;102572;-60
2022/08/21 00:46:00;;;;;;;4.80;3.67;;;;;;;16.34;100.00;96455.47;5049773;27;102008;-60
2022/08/21 00:51:59;;;;;;;4.77;3.90;;;;;;;16.33;100.00;96452.03;5049581;27;105347;-60
2022/08/21 00:54:29;;;;;;;4.63;3.60;;;;;;;16.34;100.00;96440.19;5051894;27;102132;-60
2022/08/21 00:57:08;;;;;;;3.93;3.53;;;;;;;16.29;100.00;96442.16;5050501;27;104336;-60
2022/08/21 00:59:39;;;;;;;3.83;3.43;;;;;;;16.33;100.00;96445.84;5050224;27;101890;-60
2022/08/21 01:02:08;;;;;;;3.93;3.63;;;;;;;16.36;100.00;96439.91;5051705;27;102839;-60
2022/08/21 01:04:36;;;;;;;3.90;3.60;;;;;;;16.31;100.00;96438.09;5045559;27;101974;-60
2022/08/21 01:07:06;;;;;;;3.30;3.10;;;;;;;16.35;100.00;96436.41;5031315;28;101927;-60
2022/08/21 01:09:34;;;;;;;3.70;3.40;;;;;;;16.35;100.00;96441.00;5035272;27;102559;-60
2022/08/21 01:12:02;;;;;;;4.13;3.70;;;;;;;16.38;100.00;96437.72;5048681;27;101976;-60
2022/08/21 01:14:30;;;;;;;4.23;3.50;;;;;;;16.44;100.00;96447.34;5051695;27;101913;-60
2022/08/21 01:20:42;;;;;;;3.83;3.50;;;;;;;16.50;100.00;96438.97;5039684;27;102041;-60
2022/08/21 01:23:11;;;;;;;3.60;3.40;;;;;;;16.47;100.00;96442.22;5029551;28;105376;-60
2022/08/21 01:26:05;;;;;;;3.80;3.50;;;;;;;16.52;100.00;96436.00;5043565;27;102809;-60
2022/08/21 01:28:36;;;;;;;4.10;3.73;;;;;;;16.54;100.00;96431.13;5051042;27;101896;-60
2022/08/21 01:31:07;;;;;;;3.70;3.40;;;;;;;16.55;100.00;96435.41;5035340;27;102379;-60
2022/08/21 01:33:34;;;;;;;3.80;3.43;;;;;;;16.54;100.00;96431.94;5029192;28;105873;-60
2022/08/21 01:36:15;;;;;;;4.00;3.70;;;;;;;16.53;100.00;96434.91;5032010;27;103824;-60
2022/08/21 01:38:44;;;;;;;3.50;3.20;;;;;;;16.57;100.00;96434.03;5032215;27;105324;-60
2022/08/21 01:41:11;;;;;;;3.50;3.20;;;;;;;16.55;100.00;96427.38;5029039;28;101992;-60
2022/08/21 01:43:38;;;;;;;4.00;3.70;;;;;;;16.54;100.00;96429.28;5030750;28;102930;-60
2022/08/21 01:46:16;;;;;;;3.20;3.00;;;;;;;16.50;100.00;96430.09;5048039;27;107482;-60
2022/08/21 01:48:44;;;;;;;3.70;3.30;;;;;;;16.50;100.00;96435.47;5049078;27;101948;-60
2022/08/21 01:51:12;;;;;;;3.33;3.13;;;;;;;16.51;100.00;96435.19;5030630;28;102990;-60
2022/08/21 01:53:39;;;;;;;3.43;3.10;;;;;;;16.49;100.00;96433.88;5030051;28;102622;-60
2022/08/21 01:56:51;;;;;;;3.40;3.20;;;;;;;16.49;100.00;96431.19;5050053;27;101980;-60
2022/08/21 01:59:21;;;;;;;3.30;3.10;;;;;;;16.49;100.00;96433.88;5037407;27;102933;-60
2022/08/21 02:01:48;;;;;;;3.80;3.50;;;;;;;16.54;100.00;96431.13;5057183;27;102565;-60
2022/08/21 02:04:16;;;;;;;3.43;3.23;;;;;;;16.52;100.00;96436.00;5048911;27;105220;-60
2022/08/21 02:07:10;;;;;;;3.40;3.20;;;;;;;16.54;100.00;96436.50;5033433;28;102624;-60
2022/08/21 02:09:38;;;;;;;3.33;3.13;;;;;;;16.53;100.00;96438.41;5040316;27;102005;-60
2022/08/21 02:12:05;;;;;;;4.00;3.70;;;;;;;16.51;100.00;96437.88;5054072;27;102753;-60
2022/08/21 02:14:33;;;;;;;3.20;3.00;;;;;;;16.55;100.00;96433.53;5052888;27;103155;-60
2022/08/21 02:17:07;;;;;;;3.37;3.00;;;;;;;16.57;100.00;96428.69;5054090;27;101846;-60
2022/08/21 02:19:37;;;;;;;3.80;3.50;;;;;;;16.56;100.00;96432.44;5044389;27;105633;-60
2022/08/21 02:22:05;;;;;;;3.67;3.37;;;;;;;16.56;100.00;96423.63;5033310;28;102597;-60
2022/08/21 02:24:32;;;;;;;3.60;3.30;;;;;;;16.58;100.00;96427.59;5042226;27;103496;-60
2022/08/21 02:26:59;;;;;;;5.03;3.50;;;;;;;16.58;100.00;96424.91;5053323;27;102742;-60
2022/08/21 02:29:26;;;;;;;3.47;3.17;;;;;;;16.55;100.00;96420.13;5047717;27;101948;-60
2022/08/21 02:31:55;;;;;;;3.30;3.00;;;;;;;16.57;100.00;96425.22;5053860;27;102453;-60
2022/08/21 02:34:22;;;;;;;3.50;3.20;;;;;;;16.57;100.00;96417.94;5049251;27;105663;-60
2022/08/21 02:36:57;;;;;;;4.33;3.60;;;;;;;16.54;100.00;96415.84;5053821;27;101881;-60
2022/08/21 02:39:24;;;;;;;3.70;3.50;;;;;;;16.58;100.00;96416.06;5051969;27;102884;-60
2022/08/21 02:41:51;;;;;;;3.50;3.20;;;;;;;16.56;100.00;96418.25;5051767;27;105440;-60
2022/08/21 02:44:18;;;;;;;3.73;3.40;;;;;;;16.59;100.00;96410.41;5053004;27;102161;-60
2022/08/21 02:46:49;;;;;;;3.50;3.20;;;;;;;16.56;100.00;96412.88;5055070;27;103984;-60
2022/08/21 02:49:35;;;;;;;3.57;3.37;;;;;;;16.58;100.00;96414.16;5051997;27;101829;-60
2022/08/21 02:52:05;;;;;;;3.60;3.30;;;;;;;16.58;100.00;96413.38;5053632;27;101655;-60
2022/08/21 02:54:32;;;;;;;2.93;2.73;;;;;;;16.58;100.00;96416.06;5038020;27;105681;-60
2022/08/21 03:00:23;;;;;;;3.50;3.20;;;;;;;16.51;100.00;96416.41;5053449;27;101768;-60
2022/08/21 03:02:53;;;;;;;3.20;3.00;;;;;;;16.55;100.00;96432.72;5052137;27;102524;-60
2022/08/21 03:05:28;;;;;;;2.80;2.60;;;;;;;16.55;100.00;96425.50;5053040;27;101869;-60
2022/08/21 03:07:55;;;;;;;4.13;2.47;;;;;;;16.56;100.00;96419.03;5048306;27;102810;-60
2022/08/21 03:10:24;;;;;;;2.90;2.70;;;;;;;16.55;100.00;96425.50;5033864;27;105254;-60
2022/08/21 03:12:52;;;;;;;2.37;2.27;;;;;;;16.50;100.00;96422.06;5031417;27;105131;-60
2022/08/21 03:15:35;;;;;;;2.10;2.00;;;;;;;16.43;100.00;96424.28;5030757;27;105319;-60
2022/08/21 03:18:04;;;;;;;2.30;2.10;;;;;;;16.43;100.00;96419.72;5038540;27;101857;-60
2022/08/21 03:20:33;;;;;;;2.60;2.03;;;;;;;16.39;100.00;96426.75;5053084;27;102541;-60
2022/08/21 03:23:01;;;;;;;2.93;2.07;;;;;;;16.29;100.00;96418.00;5041847;27;103208;-60
2022/08/21 03:26:06;;;;;;;2.03;1.93;;;;;;;16.26;100.00;96419.38;5043608;27;102211;-60
2022/08/21 03:28:34;;;;;;;1.70;1.60;;;;;;;16.31;100.00;96418.50;5051392;27;105745;-60
2022/08/21 03:31:01;;;;;;;1.80;1.70;;;;;;;16.29;100.00;96418.00;5055733;27;102639;-60
2022/08/21 03:33:28;;;;;;;1.80;1.70;;;;;;;16.36;100.00;96413.06;5049784;27;105636;-60
2022/08/21 03:36:08;;;;;;;2.40;2.20;;;;;;;16.39;100.00;96418.69;5051986;27;101702;-60
2022/08/21 03:38:37;;;;;;;2.70;2.03;;;;;;;16.37;100.00;96420.84;5037683;27;101778;-60
2022/08/21 03:41:06;;;;;;;2.23;2.00;;;;;;;16.40;100.00;96411.47;5044088;27;102364;-60
2022/08/21 03:43:34;;;;;;;2.37;2.27;;;;;;;16.40;100.00;96420.28;5051935;27;102819;-60
2022/08/21 03:46:46;;;;;;;2.40;2.30;;;;;;;16.42;100.00;96428.06;5039709;27;101944;-60
2022/08/21 03:49:13;;;;;;;2.60;2.40;;;;;;;16.38;100.00;96421.63;5050739;27;105302;-60
2022/08/21 03:51:42;;;;;;;2.67;2.47;;;;;;;16.39;100.00;96418.69;5034175;27;102689;-60
2022/08/21 03:54:09;;;;;;;3.00;2.80;;;;;;;16.35;100.00;96423.00;5034505;28;102099;-60
2022/08/21 03:59:58;;;;;;;3.33;3.03;;;;;;;16.30;100.00;96430.31;5030250;28;101866;-60
2022/08/21 04:02:26;;;;;;;3.43;3.23;;;;;;;16.25;100.00;96433.84;5035650;27;106098;-60
2022/08/21 04:04:52;;;;;;;3.13;2.93;;;;;;;16.22;100.00;96433.63;5050267;27;105403;-60
2022/08/21 04:07:25;;;;;;;3.60;3.30;;;;;;;16.18;100.00;96432.59;5049298;27;102018;-60
2022/08/21 04:09:53;;;;;;;3.70;3.40;;;;;;;16.15;100.00;96438.53;5052675;27;101766;-60
2022/08/21 04:12:20;;;;;;;4.27;3.97;;;;;;;16.14;100.00;96435.03;5048418;27;106353;-60
2022/08/21 04:14:48;;;;;;;4.17;3.87;;;;;;;16.14;100.00;96436.94;5050471;27;102025;-60
2022/08/21 04:20:37;;;;;;;3.97;3.67;;;;;;;16.09;100.00;96445.81;5030589;28;103493;-60
2022/08/21 04:23:06;;;;;;;4.87;4.47;;;;;;;16.06;100.00;96443.72;5030755;27;103247;-60
2022/08/21 04:26:24;;;;;;;4.73;4.33;;;;;;;16.01;100.00;96443.75;5039334;27;104307;-60
2022/08/21 04:28:50;;;;;;;4.83;4.40;;;;;;;16.00;100.00;96457.44;5034175;27;101963;-60
2022/08/21 04:31:18;;;;;;;4.80;4.40;;;;;;;15.96;100.00;96448.38;5031607;28;102835;-60
2022/08/21 04:33:45;;;;;;;4.63;4.23;;;;;;;15.99;100.00;96453.16;5040591;27;105326;-60
2022/08/21 04:39:36;;;;;;;4.47;4.17;;;;;;;15.97;100.00;96463.38;5031749;28;101691;-60
2022/08/21 04:42:03;;;;;;;4.40;4.10;;;;;;;16.01;100.00;96470.56;5066805;27;105496;-60
2022/08/21 04:44:30;;;;;;;4.47;4.07;;;;;;;16.02;100.00;96466.03;5035396;27;102358;-60
2022/08/21 04:47:02;;;;;;;5.10;4.47;;;;;;;16.03;100.00;96456.88;5047105;27;102476;-60
2022/08/21 04:49:54;;;;;;;4.53;4.23;;;;;;;16.03;100.00;96462.25;5030179;27;101834;-60
2022/08/21 04:52:25;;;;;;;5.30;4.50;;;;;;;15.97;100.00;96461.47;5029965;27;105945;-60
2022/08/21 04:54:54;;;;;;;4.77;4.47;;;;;;;15.98;100.00;96457.72;5030954;27;102853;-60
2022/08/21 04:57:53;;;;;;;5.03;4.63;;;;;;;15.99;100.00;96458.53;5038109;27;101876;-60
2022/08/21 05:00:21;;;;;;;4.87;4.47;;;;;;;15.98;100.00;96460.41;5049541;27;105016;-60
2022/08/21 05:02:54;;;;;;;5.00;4.60;;;;;;;15.95;100.00;96460.16;5049198;27;103966;-60
2022/08/21 05:05:30;;;;;;;4.80;4.50;;;;;;;15.92;100.00;96471.47;5054916;27;101679;-60
2022/08/21 05:07:58;;;;;;;5.07;4.57;;;;;;;15.89;100.00;96467.47;5048838;27;105918;-60
2022/08/21 05:10:27;;;;;;;5.57;4.40;;;;;;;15.92;100.00;96468.78;5050280;27;101866;-60
2022/08/21 05:12:56;;;;;;;4.33;4.03;;;;;;;15.98;100.00;96470.34;5039723;27;102880;-60
2022/08/21 05:22:09;;;;;;;3.93;3.73;;;;;;;16.13;100.00;96479.03;5029597;27;105501;-60
2022/08/21 05:24:37;;;;;;;4.83;4.40;;;;;;;16.16;100.00;96488.41;5030237;27;103288;-60
2022/08/21 05:30:28;;;;;;;4.13;3.83;;;;;;;16.24;100.00;96482.44;5052676;27;105038;-60
2022/08/21 05:32:57;;;;;;;4.67;4.27;;;;;;;16.28;100.00;96478.09;5048962;27;102275;-60
2022/08/21 05:35:25;;;;;;;3.90;3.60;;;;;;;16.36;100.00;96485.53;5036882;27;104993;-60
2022/08/21 05:37:52;;;;;;;5.80;3.50;;;;;;;16.43;100.00;96484.16;5040691;27;103044;-60
2022/08/21 05:40:19;;;;;;;4.00;3.70;;;;;;;16.47;100.00;96485.16;5042444;27;101977;-60
2022/08/21 05:42:46;;;;;;;4.07;3.70;;;;;;;16.56;100.00;96488.06;5030768;28;102581;-60
2022/08/21 05:45:13;;;;;;;3.63;3.33;;;;;;;16.71;100.00;96490.53;5031044;27;102543;-60
2022/08/21 05:47:42;;;;;;;3.90;3.60;;;;;;;16.69;100.00;96487.34;5030810;27;101888;-60
2022/08/21 05:50:19;;;;;;;3.60;3.30;;;;;;;16.77;100.00;96492.91;5033336;27;102308;-60
2022/08/21 05:52:46;;;;;;;3.50;3.20;;;;;;;16.81;100.00;96485.06;5030679;27;101867;-60
2022/08/21 05:55:13;;;;;;;3.60;3.30;;;;;;;16.83;100.00;96482.88;5029019;27;105150;-60
2022/08/21 05:57:41;;;;;;;3.70;3.40;;;;;;;16.97;100.00;96483.78;5030787;27;104300;-60
2022/08/21 06:00:12;;;;;;;3.13;2.93;;;;;;;16.99;100.00;96481.59;5030016;28;101867;-60
2022/08/21 06:02:40;;;;;;;3.60;3.30;;;;;;;16.94;100.00;96477.09;5027571;27;102022;-60
2022/08/21 06:05:09;;;;;;;3.50;3.20;;;;;;;17.02;100.00;96483.72;5028409;27;105863;-60
2022/08/21 06:07:37;;;;;;;3.60;3.30;;;;;;;17.07;100.00;96479.06;5037782;27;101812;-60
2022/08/21 06:10:04;;;;;;;3.83;3.43;;;;;;;16.97;100.00;96487.28;5049174;27;105704;-60
2022/08/21 06:12:31;;;;;;;3.30;3.07;;;;;;;16.96;100.00;96474.91;5051408;27;105627;-60
2022/08/21 06:14:58;;;;;;;3.90;3.60;;;;;;;17.09;100.00;96468.03;5050296;27;102348;-60
2022/08/21 06:17:47;;;;;;;3.33;3.13;;;;;;;17.10;100.00;96472.31;5043776;27;102681;-60
2022/08/21 06:20:21;;;;;;;3.70;3.40;;;;;;;17.23;100.00;96477.00;5030153;28;102128;-60
2022/08/21 06:22:48;;;;;;;3.90;3.50;;;;;;;17.41;100.00;96478.91;5030510;27;102371;-60
2022/08/21 06:25:19;;;;;;;3.57;3.27;;;;;;;17.52;100.00;96472.31;5037728;27;103199;-60
2022/08/21 06:27:46;;;;;;;3.57;3.33;;;;;;;17.77;100.00;96467.31;5049965;27;103347;-60
2022/08/21 06:30:14;;;;;;;3.40;3.20;;;;;;;17.94;100.00;96464.09;5050445;27;102954;-61
2022/08/21 06:32:41;;;;;;;3.10;2.90;;;;;;;17.99;100.00;96467.50;5048196;27;105982;-60
2022/08/21 06:35:09;;;;;;;3.40;3.10;;;;;;;17.93;100.00;96471.38;5045520;27;101917;-60
2022/08/21 06:37:38;;;;;;;3.10;2.80;;;;;;;18.05;100.00;96466.31;5034939;27;105921;-60
2022/08/21 06:40:06;;;;;;;2.70;2.50;;;;;;;18.40;100.00;96464.94;5048914;27;101872;-60
2022/08/21 06:42:34;;;;;;;2.73;2.60;;;;;;;18.46;100.00;96463.72;5043940;27;103740;-60
2022/08/21 06:45:01;;;;;;;3.33;2.53;;;;;;;18.46;100.00;96458.34;5029320;27;102594;-60
2022/08/21 06:47:28;;;;;;;3.70;2.50;;;;;;;18.46;100.00;96463.72;5037102;27;102075;-60
2022/08/21 06:50:07;;;;;;;2.50;2.30;;;;;;;18.73;100.00;96459.16;5051640;27;102546;-60
2022/08/21 06:52:34;;;;;;;3.63;2.43;;;;;;;18.77;100.00;96462.06;5051632;27;105659;-60
2022/08/21 06:55:03;;;;;;;2.80;2.37;;;;;;;18.65;100.00;96456.38;5048095;27;101849;-60
2022/08/21 06:57:31;;;;;;;3.07;2.13;;;;;;;18.77;100.00;96448.59;5036023;28;102322;-60
2022/08/21 06:59:58;;;;;;;3.13;2.20;;;;;;;18.93;100.00;96457.97;5037854;27;101858;-60
2022/08/21 07:02:25;;;;;;;1.97;1.83;;;;;;;19.27;100.00;96452.94;5049724;27;105149;-60
2022/08/21 07:04:52;;;;;;;2.30;2.20;;;;;;;19.46;100.00;96451.69;5030937;27;106106;-60
2022/08/21 07:10:44;;;;;;;2.27;2.17;;;;;;;19.60;100.00;96449.75;5044383;27;102679;-60
2022/08/21 07:13:11;;;;;;;3.97;1.90;;;;;;;19.28;100.00;96439.16;5051983;27;103227;-60
2022/08/21 07:15:39;;;;;;;2.10;1.90;;;;;;;19.68;100.00;96443.59;5052913;27;101929;-60
2022/08/21 07:18:07;;;;;;;2.10;1.90;;;;;;;19.64;100.00;96444.53;5034759;27;105170;-60
2022/08/21 07:21:18;;;;;;;1.97;1.80;;;;;;;19.76;100.00;96436.69;5044439;27;105815;-60
2022/08/21 07:23:48;;;;;;;2.00;1.80;;;;;;;19.85;100.00;96429.44;5032969;27;102282;-60
2022/08/21 07:26:26;;;;;;;1.73;1.63;;;;;;;20.04;100.00;96430.03;5032074;27;102843;-60
2022/08/21 07:28:54;;;;;;;2.23;1.63;;;;;;;20.13;100.00;96428.22;5032615;27;101723;-60
2022/08/21 07:31:24;;;;;;;1.70;1.60;;;;;;;20.36;100.00;96429.75;5047053;27;106471;-60
2022/08/21 07:33:51;;;;;;;1.67;1.57;;;;;;;20.28;100.00;96422.44;5049404;27;106996;-60
2022/08/21 07:36:19;;;;;;;1.80;1.70;;;;;;;20.48;100.00;96419.19;5052142;27;102019;-60
2022/08/21 07:38:47;;;;;;;2.10;1.63;;;;;;;20.57;100.00;96418.13;5051304;27;102384;-60
2022/08/21 07:41:17;;;;;;;1.60;1.50;;;;;;;20.66;100.00;96410.81;5039973;27;103410;-60
2022/08/21 07:43:47;;;;;;;1.80;1.60;;;;;;;20.85;100.00;96408.66;5036132;28;101692;-60
2022/08/21 07:46:14;;;;;;;1.70;1.60;;;;;;;20.74;100.00;96411.94;5031648;27;103601;-60
2022/08/21 07:48:42;;;;;;;2.00;1.50;;;;;;;20.79;100.00;96409.91;5032491;28;101949;-60
2022/08/21 07:51:12;;;;;;;2.30;1.60;;;;;;;20.93;100.00;96404.41;5044759;27;106486;-60
2022/08/21 07:53:40;;;;;;;1.33;1.30;;;;;;;20.80;100.00;96397.19;5052199;27;102020;-60
2022/08/21 07:59:32;;;;;;;1.57;1.47;;;;;;;21.07;100.00;96394.25;5032070;27;101882;-60
2022/08/21 08:01:59;;;;;;;1.37;1.27;;;;;;;21.29;100.00;96402.22;5051317;27;104175;-60
2022/08/21 08:04:26;;;;;;;2.13;1.30;;;;;;;21.57;100.00;96400.81;5054272;27;101929;-60
2022/08/21 08:07:30;;;;;;;1.60;1.50;;;;;;;21.32;100.00;96398.91;5031352;28;103108;-60
2022/08/21 08:09:58;;;;;;;1.60;1.40;;;;;;;21.53;100.00;96394.44;5031226;27;101905;-60
2022/08/21 08:12:28;;;;;;;1.60;1.50;;;;;;;21.65;100.00;96389.97;5030684;28;105315;-60
2022/08/21 08:14:58;;;;;;;2.30;1.50;;;;;;;21.72;100.00;96393.03;5029790;28;105617;-60
2022/08/21 08:20:48;;;;;;;1.80;1.60;;;;;;;21.88;100.00;96386.00;5031733;28;102656;-60
2022/08/21 08:23:16;;;;;;;1.60;1.50;;;;;;;21.89;100.00;96387.56;5031366;28;102634;-60
2022/08/21 08:25:48;;;;;;;1.33;1.23;;;;;;;22.04;100.00;96378.13;5031497;28;101887;-60
2022/08/21 08:28:15;;;;;;;1.70;1.60;;;;;;;22.12;100.00;96380.03;5035110;28;102462;-60
2022/08/21 08:30:44;;;;;;;1.67;1.57;;;;;;;22.31;100.00;96375.03;5031518;27;101867;-60
2022/08/21 08:33:11;;;;;;;2.23;1.90;;;;;;;22.34;100.00;96374.38;5031761;28;102770;-60
2022/08/21 08:36:17;;;;;;;2.07;1.43;;;;;;;22.00;100.00;96369.06;5030579;28;102597;-60
2022/08/21 08:38:44;;;;;;;1.87;1.40;;;;;;;22.15;100.00;96371.25;5031756;28;101719;-60
2022/08/21 08:41:15;;;;;;;1.90;1.43;;;;;;;22.00;100.00;96369.06;5031556;27;102636;-60
2022/08/21 08:44:01;;;;;;;1.97;1.30;;;;;;;21.93;100.00;96368.75;5029511;28;105523;-60
2022/08/21 08:46:57;;;;;;;2.27;1.80;;;;;;;22.34;100.00;96369.75;5031585;28;101800;-60
2022/08/21 08:49:44;;;;;;;1.50;1.40;;;;;;;22.50;100.00;96370.81;5031422;28;103205;-60
2022/08/21 08:52:20;;;;;;;2.67;1.70;;;;;;;22.42;100.00;96365.41;5034374;28;102751;-60
2022/08/21 08:54:59;;;;;;;2.17;1.70;;;;;;;22.87;100.00;96374.59;5031416;28;103476;-60
2022/08/21 08:57:34;;;;;;;3.27;1.60;;;;;;;22.81;100.00;96373.22;5029364;27;105729;-60
2022/08/21 09:00:05;;;;;;;2.93;1.50;;;;;;;22.78;100.00;96377.38;5038314;27;101838;-60
2022/08/21 09:02:34;;;;;;;1.50;1.40;;;;;;;22.64;100.00;96367.88;5050043;27;102286;-60
2022/08/21 09:05:02;;;;;;;1.83;1.60;;;;;;;23.11;100.00;96361.22;5030620;27;102590;-60
2022/08/21 09:07:41;;;;;;;1.60;1.50;;;;;;;23.34;100.00;96365.22;5030870;27;101941;-60
2022/08/21 09:10:15;;;;;;;3.63;1.70;;;;;;;23.51;100.00;96362.34;5036229;27;102253;-60
2022/08/21 09:12:53;;;;;;;2.17;1.50;;;;;;;23.47;100.00;96367.66;5030544;27;103139;-60
2022/08/21 09:19:08;;;;;;;1.67;1.30;;;;;;;23.26;100.00;96355.25;5030385;28;101699;-60
2022/08/21 09:21:44;;;;;;;1.07;0.97;;;;;;;23.43;100.00;96358.59;5030925;27;101857;-60
2022/08/21 09:24:25;;;;;;;2.23;1.30;;;;;;;23.46;100.00;96355.22;5031475;27;102361;-60
2022/08/21 09:27:17;;;;;;;1.47;1.00;;;;;;;23.24;100.00;96357.47;5031152;27;105856;-61
2022/08/21 09:29:47;;;;;;;1.73;1.00;;;;;;;23.39;100.00;96352.25;5034553;27;101981;-60
2022/08/21 09:32:18;;;;;;;1.77;1.27;;;;;;;23.49;100.00;96359.19;5049699;27;105578;-60
2022/08/21 09:34:59;;;;;;;2.70;1.17;;;;;;;23.75;100.00;96351.63;5043488;27;103943;-60
2022/08/21 09:37:51;;;;;;;3.47;1.30;;;;;;;23.81;100.00;96348.34;5029265;28;101896;-60
2022/08/21 09:40:41;;;;;;;4.07;1.50;;;;;;;24.42;100.00;96354.72;5034540;27;104403;-60
2022/08/21 09:43:18;;;;;;;2.27;1.23;;;;;;;24.06;100.00;96349.22;5025044;28;101989;-60
2022/08/21 09:46:09;;;;;;;1.63;1.27;;;;;;;24.12;100.00;96356.81;5031985;27;102321;-60
2022/08/21 09:48:54;;;;;;;1.70;1.20;;;;;;;23.32;100.00;96346.56;5028563;28;105379;-60
2022/08/21 09:51:25;;;;;;;1.37;1.27;;;;;;;23.29;100.00;96352.66;5031899;27;102016;-60
2022/08/21 09:53:56;;;;;;;1.37;0.90;;;;;;;23.83;100.00;96345.28;5030829;27;102552;-60
2022/08/21 09:59:48;;;;;;;1.00;0.90;;;;;;;23.79;100.00;96345.16;5048672;27;101926;-60
2022/08/21 10:02:26;;;;;;;1.00;1.00;;;;;;;23.98;100.00;96344.69;5050553;27;102276;-61
2022/08/21 10:04:56;;;;;;;2.20;1.10;;;;;;;24.47;100.00;96343.63;5045072;27;101790;-61
2022/08/21 10:07:44;;;;;;;1.53;1.10;;;;;;;24.71;100.00;96346.34;5030429;28;103816;-60
2022/08/21 10:10:19;;;;;;;2.20;1.27;;;;;;;24.50;100.00;96337.50;5040299;27;102774;-60
2022/08/21 10:12:56;;;;;;;0.93;0.93;;;;;;;24.71;100.00;96338.19;5050802;27;101734;-60
2022/08/21 10:15:38;;;;;;;1.53;1.20;;;;;;;24.34;100.00;96350.97;5038214;27;102863;-61
2022/08/21 10:18:17;;;;;;;1.47;1.20;;;;;;;24.39;100.00;96339.88;5059488;27;105717;-60
2022/08/21 10:20:48;;;;;;;1.33;1.23;;;;;;;24.29;100.00;96344.94;5044703;27;101875;-61
2022/08/21 10:23:36;;;;;;;1.97;1.33;;;;;;;23.39;100.00;96346.03;5053672;27;102409;-61
2022/08/21 10:29:43;;;;;;;2.50;1.10;;;;;;;23.31;100.00;96344.16;5048364;27;105415;-61
2022/08/21 10:32:29;;;;;;;1.77;1.23;;;;;;;23.26;100.00;96341.69;5033146;27;102937;-61
2022/08/21 10:35:03;;;;;;;1.27;1.13;;;;;;;23.31;100.00;96338.72;5033624;27;103215;-61
2022/08/21 10:37:46;;;;;;;1.93;1.27;;;;;;;23.29;100.00;96330.94;5032286;28;105316;-61
2022/08/21 10:40:22;;;;;;;1.20;1.10;;;;;;;23.75;100.00;96332.59;5033178;27;103083;-60
2022/08/21 10:43:02;;;;;;;1.30;1.20;;;;;;;24.60;100.00;96332.44;5031917;28;101874;-61
2022/08/21 10:45:47;;;;;;;2.83;1.20;;;;;;;24.89;100.00;96331.38;5046034;27;102865;-61
2022/08/21 10:48:22;;;;;;;1.50;1.20;;;;;;;25.82;94.64;96329.84;5053256;27;101707;-61
2022/08/21 10:50:53;;;;;;;2.27;1.30;;;;;;;26.75;98.18;96323.72;5055884;27;101783;-61
2022/08/21 10:53:33;;;;;;;1.67;1.13;;;;;;;26.00;81.93;96319.47;5051673;27;105760;-61
2022/08/21 10:56:14;;;;;;;1.63;1.13;;;;;;;25.00;100.00;96327.84;5052170;27;101917;-61
2022/08/21 10:58:50;;;;;;;1.27;1.23;;;;;;;24.48;100.00;96328.88;5053171;27;102438;-61
2022/08/21 11:01:22;;;;;;;1.53;1.40;;;;;;;24.17;100.00;96325.91;5033718;27;101848;-61
2022/08/21 11:03:55;;;;;;;1.63;1.30;;;;;;;23.78;100.00;96321.84;5033587;28;101723;-60
2022/08/21 11:06:32;;;;;;;1.20;1.20;;;;;;;23.69;100.00;96326.56;5052889;27;102429;-61
2022/08/21 11:09:05;;;;;;;1.47;1.20;;;;;;;23.26;100.00;96325.41;5052707;27;102528;-61
2022/08/21 11:11:40;;;;;;;1.30;1.20;;;;;;;23.30;100.00;96329.81;5048194;27;102030;-61
2022/08/21 11:14:19;;;;;;;1.37;1.27;;;;;;;23.26;100.00;96330.81;5035117;27;105525;-60
2022/08/21 11:17:37;;;;;;;1.57;1.47;;;;;;;23.77;100.00;96330.34;5051707;27;101831;-61
2022/08/21 11:23:34;;;;;;;3.33;1.47;;;;;;;23.41;100.00;96312.00;5031226;27;105807;-60
2022/08/21 11:26:17;;;;;;;2.03;1.20;;;;;;;23.93;100.00;96304.94;5031476;27;101992;-60
2022/08/21 11:28:52;;;;;;;1.93;1.50;;;;;;;24.90;100.00;96298.38;5046555;27;105493;-72
2022/08/21 11:31:34;;;;;;;1.50;1.40;;;;;;;24.75;100.00;96299.09;5049002;27;105112;-61
2022/08/21 11:34:13;;;;;;;1.87;1.33;;;;;;;25.59;100.00;96292.63;5049958;27;101817;-61
2022/08/21 11:36:52;;;;;;;3.30;1.47;;;;;;;25.53;93.24;96292.09;5050452;27;101820;-61
2022/08/21 11:39:27;;;;;;;1.30;1.20;;;;;;;25.89;100.00;96286.44;5037125;27;103029;-61
2022/08/21 11:42:07;;;;;;;3.37;1.50;;;;;;;26.41;98.93;96281.56;5052227;27;102395;-61
2022/08/21 11:44:50;;;;;;;2.80;1.60;;;;;;;26.31;93.14;96275.88;5048553;27;103505;-61
2022/08/21 11:47:57;;;;;;;1.67;1.40;;;;;;;25.88;93.75;96278.63;5032626;28;102033;-61
2022/08/21 11:53:54;;;;;;;1.40;1.30;;;;;;;25.98;93.86;96264.50;5030610;28;105571;-61
2022/08/21 11:56:55;;;;;;;2.47;1.20;;;;;;;26.04;87.24;96265.84;5051150;27;101733;-61
2022/08/21 11:59:25;;;;;;;2.10;1.30;;;;;;;25.64;100.00;96270.59;5048458;27;105739;-61
2022/08/21 12:01:54;;;;;;;2.13;1.33;;;;;;;25.45;95.59;96256.84;5031798;28;102532;-61
2022/08/21 12:04:28;;;;;;;1.60;1.50;;;;;;;25.59;92.57;96257.22;5034390;27;102004;-61
2022/08/21 12:07:11;;;;;;;1.30;1.30;;;;;;;25.98;85.06;96265.31;5031808;28;102608;-61
2022/08/21 12:09:38;;;;;;;1.83;1.47;;;;;;;25.61;82.35;96263.13;5035218;27;102077;-61
2022/08/21 12:12:11;;;;;;;1.73;1.40;;;;;;;25.59;80.49;96249.84;5050861;27;102876;-61
2022/08/21 12:14:42;;;;;;;1.70;1.30;;;;;;;26.11;68.23;96252.38;5030260;28;105432;-61
2022/08/21 12:17:21;;;;;;;1.27;1.17;;;;;;;26.62;67.58;96254.81;5031988;27;102027;-61
2022/08/21 12:20:27;;;;;;;2.20;1.40;;;;;;;26.34;50.20;96254.13;5036519;27;102871;-61
2022/08/21 12:23:03;;;;;;;1.50;1.40;;;;;;;26.18;48.53;96263.44;5049393;27;106499;-61
2022/08/21 12:25:40;;;;;;;1.60;1.50;;;;;;;26.73;45.21;96255.84;5055490;27;101778;-61
2022/08/21 12:28:10;;;;;;;1.40;1.30;;;;;;;26.65;42.84;96253.31;5049848;27;105701;-61
2022/08/21 12:30:41;;;;;;;2.43;1.70;;;;;;;26.13;42.34;96258.25;5047377;27;101865;-61
2022/08/21 12:33:23;;;;;;;2.70;1.50;;;;;;;26.87;42.51;96249.91;5040445;27;105478;-61
2022/08/21 12:36:16;;;;;;;1.53;1.43;;;;;;;26.63;42.43;96250.13;5032578;27;103066;-61
2022/08/21 12:38:51;;;;;;;1.50;1.40;;;;;;;26.95;40.88;96244.25;5031598;27;102158;-61
2022/08/21 12:41:22;;;;;;;1.40;1.30;;;;;;;27.33;40.18;96246.19;5043879;27;102453;-61
2022/08/21 12:43:57;;;;;;;1.60;1.50;;;;;;;27.33;38.89;96238.81;5037222;27;105501;-61